Time;durP1;ratioP1;P1;durP2;ratioP2;P2;SDS_P1;SDS_P2;PMS_P1;PMS_P2;Temp;Humidity;BMP_temperature;BMP_pressure;BME280_temperature;BME280_humidity;BME280_pressure;Samples;Min_cycle;Max_cycle;Signal;HPM_P1;HPM_P2
2021/12/18 00:00:07;;;;;;;18.47;16.47;;;;;;;3.74;87.89;100139.97;5056941;28;20189;-70
2021/12/18 00:02:33;;;;;;;17.27;15.47;;;;;;;3.86;86.48;100135.50;5055615;28;20193;-70
2021/12/18 00:04:59;;;;;;;19.30;16.53;;;;;;;3.78;87.09;100146.66;5054948;28;20648;-74
2021/12/18 00:07:26;;;;;;;18.33;16.00;;;;;;;3.72;88.12;100134.03;5055247;28;20192;-73
2021/12/18 00:09:53;;;;;;;18.70;16.40;;;;;;;3.60;88.50;100142.06;5055190;28;20200;-74
2021/12/18 00:12:19;;;;;;;18.57;15.57;;;;;;;3.73;87.68;100137.47;5054797;28;20221;-74
2021/12/18 00:14:46;;;;;;;19.67;17.03;;;;;;;3.82;87.33;100131.44;5055042;28;20224;-73
2021/12/18 00:17:15;;;;;;;19.97;16.50;;;;;;;3.90;86.80;100134.28;5056177;28;20272;-74
2021/12/18 00:19:41;;;;;;;19.33;17.33;;;;;;;3.70;87.04;100143.00;5057015;28;20189;-73
2021/12/18 00:22:07;;;;;;;19.10;16.50;;;;;;;3.73;87.41;100138.31;5056922;28;20194;-73
2021/12/18 00:24:34;;;;;;;19.43;16.50;;;;;;;3.81;86.87;100145.56;5056886;28;20221;-74
2021/12/18 00:27:00;;;;;;;19.80;17.70;;;;;;;3.70;86.98;100140.38;5056315;28;20190;-73
2021/12/18 00:29:27;;;;;;;19.53;17.43;;;;;;;3.75;87.73;100151.34;5056503;28;20196;-74
2021/12/18 00:31:53;;;;;;;19.70;17.30;;;;;;;3.75;87.37;100146.09;5056766;28;20193;-74
2021/12/18 00:34:20;;;;;;;19.87;17.23;;;;;;;3.67;88.21;100154.56;5056362;28;20674;-74
2021/12/18 00:36:47;;;;;;;19.10;17.07;;;;;;;3.64;89.00;100149.59;5056674;28;20205;-73
2021/12/18 00:39:13;;;;;;;22.27;17.93;;;;;;;3.58;88.30;100143.97;5056609;28;20208;-74
2021/12/18 00:41:59;;;;;;;19.10;16.93;;;;;;;3.64;88.19;100144.31;5056726;28;20485;-73
2021/12/18 00:44:25;;;;;;;20.97;16.97;;;;;;;3.74;88.05;100144.38;5056601;28;20311;-74
2021/12/18 00:46:52;;;;;;;20.80;17.63;;;;;;;3.63;87.89;100147.91;5056592;28;20182;-73
2021/12/18 00:49:19;;;;;;;19.47;17.23;;;;;;;3.58;88.82;100144.84;5056667;28;20189;-74
2021/12/18 00:51:47;;;;;;;20.47;17.83;;;;;;;3.57;89.02;100145.75;5056334;28;20585;-73
2021/12/18 00:54:13;;;;;;;19.30;17.17;;;;;;;3.58;88.69;100155.34;5056522;28;20306;-74
2021/12/18 00:56:40;;;;;;;20.03;17.10;;;;;;;3.63;88.89;100150.56;5056508;28;20232;-74
2021/12/18 00:59:06;;;;;;;20.17;17.03;;;;;;;3.61;88.97;100149.81;5056220;28;20489;-74
2021/12/18 01:01:33;;;;;;;19.57;16.63;;;;;;;3.58;88.21;100150.09;5056020;28;20707;-73
2021/12/18 01:03:59;;;;;;;19.57;16.87;;;;;;;3.55;88.75;100154.75;5056913;28;20193;-74
2021/12/18 01:06:26;;;;;;;20.67;17.90;;;;;;;3.50;88.57;100147.25;5056454;28;20221;-74
2021/12/18 01:08:56;;;;;;;19.67;16.57;;;;;;;3.43;89.49;100153.13;5056470;28;20185;-74
2021/12/18 01:11:33;;;;;;;18.77;16.77;;;;;;;3.41;89.04;100141.88;5055964;28;20308;-73
2021/12/18 01:14:27;;;;;;;20.33;17.87;;;;;;;3.49;89.58;100145.56;5056314;28;20189;-72
2021/12/18 01:22:40;;;;;;;17.97;16.07;;;;;;;3.36;89.60;100149.28;5057001;28;20244;-72
2021/12/18 01:22:48;;;;;;;18.97;17.03;;;;;;;3.34;89.69;100138.91;5056360;28;20177;-73
2021/12/18 01:25:18;;;;;;;19.00;16.20;;;;;;;3.32;89.40;100146.09;5056172;28;20231;-72
2021/12/18 01:27:45;;;;;;;17.87;15.97;;;;;;;3.36;89.17;100142.25;5056278;28;20200;-72
2021/12/18 01:30:13;;;;;;;18.73;16.73;;;;;;;3.28;89.22;100147.28;5055893;28;20493;-72
2021/12/18 01:32:40;;;;;;;18.37;16.17;;;;;;;3.32;89.28;100150.50;5056673;28;20197;-72
2021/12/18 01:35:07;;;;;;;20.27;15.50;;;;;;;3.22;89.09;100152.19;5056086;28;20221;-73
2021/12/18 01:37:33;;;;;;;18.80;16.80;;;;;;;3.26;89.29;100153.63;5056070;28;20210;-72
2021/12/18 01:40:00;;;;;;;18.33;16.30;;;;;;;3.37;89.65;100153.59;5057750;28;20196;-72
2021/12/18 01:45:25;;;;;;;20.50;17.27;;;;;;;3.39;89.76;100154.31;5023706;28;20307;-72
2021/12/18 01:53:20;;;;;;;19.43;17.07;;;;;;;3.53;88.32;100159.31;5059643;28;20179;-72
2021/12/18 01:55:49;;;;;;;19.43;17.30;;;;;;;3.32;89.00;100161.00;5059686;28;20221;-72
2021/12/18 01:58:20;;;;;;;20.20;17.53;;;;;;;3.25;89.38;100151.97;5059655;28;20324;-72
2021/12/18 02:00:47;;;;;;;19.37;17.27;;;;;;;3.23;89.40;100159.13;5059328;28;20581;-72
2021/12/18 02:03:13;;;;;;;20.60;17.23;;;;;;;3.27;89.30;100165.81;5059676;28;20189;-72
2021/12/18 02:05:40;;;;;;;19.07;16.77;;;;;;;3.21;90.06;100161.84;5059542;28;20221;-72
2021/12/18 02:08:07;;;;;;;19.37;16.63;;;;;;;3.23;89.23;100159.13;5059317;28;20196;-72
2021/12/18 02:10:45;;;;;;;18.63;16.50;;;;;;;3.36;89.20;100149.28;5059474;28;20205;-72
2021/12/18 02:13:24;;;;;;;18.67;16.67;;;;;;;3.44;88.43;100158.22;5059501;28;20203;-72
2021/12/18 02:21:22;;;;;;;20.13;17.03;;;;;;;3.12;89.87;100151.25;5059409;28;20220;-72
2021/12/18 02:23:49;;;;;;;19.47;17.03;;;;;;;3.21;89.80;100146.09;5058951;28;20646;-72
2021/12/18 02:26:16;;;;;;;18.60;16.37;;;;;;;3.08;89.96;100155.91;5059187;28;20233;-71
2021/12/18 02:28:45;;;;;;;20.53;18.33;;;;;;;3.21;89.74;100146.09;5059226;28;20185;-72
2021/12/18 02:31:12;;;;;;;20.77;18.33;;;;;;;3.17;89.81;100143.84;5059186;28;20199;-72
2021/12/18 02:33:39;;;;;;;19.13;16.87;;;;;;;3.37;89.10;100145.69;5059162;28;20196;-72
2021/12/18 02:36:08;;;;;;;20.33;17.17;;;;;;;3.24;89.29;100147.63;5058647;28;20312;-72
2021/12/18 02:38:57;;;;;;;18.73;16.80;;;;;;;3.07;89.84;100146.34;5058659;28;20641;-72
2021/12/18 02:41:30;;;;;;;17.50;15.30;;;;;;;3.12;89.27;100152.06;5058846;28;20214;-71
2021/12/18 02:44:07;;;;;;;17.43;15.37;;;;;;;3.07;89.30;100148.16;5058559;28;20185;-71
2021/12/18 02:46:34;;;;;;;19.27;16.40;;;;;;;2.91;90.09;100145.06;5058888;28;20499;-72
2021/12/18 02:49:08;;;;;;;19.20;16.43;;;;;;;3.02;90.15;100150.31;5058599;28;20193;-72
2021/12/18 02:51:35;;;;;;;18.03;16.10;;;;;;;3.15;89.83;100145.75;5059130;28;20196;-72
2021/12/18 02:54:01;;;;;;;18.43;16.43;;;;;;;3.04;89.90;100149.25;5058739;28;20209;-72
2021/12/18 02:56:27;;;;;;;21.17;17.27;;;;;;;3.20;89.04;100148.88;5058398;28;20496;-72
2021/12/18 02:59:04;;;;;;;18.83;16.63;;;;;;;3.22;88.50;100137.28;5058598;28;20206;-72
2021/12/18 03:01:32;;;;;;;20.40;18.20;;;;;;;3.18;89.19;100140.25;5058647;28;20189;-72
2021/12/18 03:04:00;;;;;;;19.77;16.90;;;;;;;3.04;89.25;100137.88;5058173;28;20284;-72
2021/12/18 03:06:31;;;;;;;18.80;16.47;;;;;;;2.91;90.04;100138.03;5058554;28;20197;-72
2021/12/18 03:09:16;;;;;;;19.50;17.40;;;;;;;2.85;90.62;100133.22;5058489;28;20193;-72
2021/12/18 03:21:02;;;;;;;19.23;16.10;;;;;;;3.11;88.90;100139.09;5058024;28;20169;-73
2021/12/18 03:23:35;;;;;;;21.47;17.83;;;;;;;2.96;90.18;100150.78;5057768;28;20284;-74
2021/12/18 03:26:01;;;;;;;20.90;17.50;;;;;;;2.85;90.42;100146.34;5058059;28;20233;-74
2021/12/18 03:28:29;;;;;;;21.20;17.67;;;;;;;2.99;90.24;100151.38;5058006;28;20228;-74
2021/12/18 03:30:56;;;;;;;21.77;17.50;;;;;;;2.98;89.92;100146.25;5057971;28;20197;-73
2021/12/18 03:33:24;;;;;;;23.03;18.37;;;;;;;2.98;89.57;100152.31;5057945;28;20229;-74
2021/12/18 03:35:51;;;;;;;22.67;18.43;;;;;;;2.94;90.33;100153.53;5057549;28;20222;-74
2021/12/18 03:38:17;;;;;;;21.07;17.03;;;;;;;3.01;89.76;100146.00;5057801;28;20217;-73
2021/12/18 03:40:43;;;;;;;20.60;16.70;;;;;;;2.83;90.68;100144.81;5057858;28;20186;-74
2021/12/18 03:43:10;;;;;;;21.63;16.50;;;;;;;2.80;90.30;100150.31;5057762;28;20256;-73
2021/12/18 03:45:36;;;;;;;23.83;17.53;;;;;;;2.65;91.17;100149.72;5057346;28;20275;-74
2021/12/18 03:48:03;;;;;;;22.30;16.93;;;;;;;2.67;90.89;100149.59;5057599;28;20481;-73
2021/12/18 03:50:29;;;;;;;21.47;17.10;;;;;;;2.65;91.70;100154.97;5057708;28;20190;-74
2021/12/18 03:52:56;;;;;;;21.73;16.23;;;;;;;2.56;91.41;100145.16;5057615;28;20197;-74
2021/12/18 03:55:22;;;;;;;22.10;17.60;;;;;;;2.61;91.90;100142.16;5057169;28;20271;-73
2021/12/18 03:57:48;;;;;;;23.63;18.23;;;;;;;2.56;92.15;100147.78;5057429;28;20209;-73
2021/12/18 04:00:17;;;;;;;25.93;19.40;;;;;;;2.64;92.21;100139.31;5057533;28;20185;-73
2021/12/18 04:02:43;;;;;;;24.30;18.40;;;;;;;2.68;91.56;100135.50;5056818;28;20476;-74
2021/12/18 04:05:11;;;;;;;22.97;16.77;;;;;;;2.70;92.35;100125.69;5057321;28;20229;-74
2021/12/18 04:07:41;;;;;;;23.83;17.40;;;;;;;2.72;91.74;100127.28;5057350;28;20193;-74
2021/12/18 04:10:14;;;;;;;23.03;17.67;;;;;;;2.66;92.13;100124.31;5057289;28;20272;-73
2021/12/18 04:12:41;;;;;;;22.77;17.40;;;;;;;2.65;91.59;100119.97;5057301;28;20190;-74
2021/12/18 04:15:08;;;;;;;21.23;16.83;;;;;;;2.73;91.29;100130.72;5057170;28;20225;-73
2021/12/18 04:17:34;;;;;;;20.30;16.30;;;;;;;2.68;91.73;100135.50;5057124;28;20213;-74
2021/12/18 04:20:00;;;;;;;20.67;16.50;;;;;;;2.67;91.91;100133.84;5057143;28;20185;-73
2021/12/18 04:22:27;;;;;;;24.17;17.50;;;;;;;2.60;92.42;100138.72;5057084;28;20186;-74
2021/12/18 04:24:53;;;;;;;21.67;17.03;;;;;;;2.62;91.77;100128.94;5056938;28;20225;-74
2021/12/18 04:27:20;;;;;;;22.30;16.93;;;;;;;2.73;91.75;100130.72;5056946;28;20194;-73
2021/12/18 04:29:46;;;;;;;20.87;16.40;;;;;;;2.67;91.92;100129.41;5056898;28;20201;-74
2021/12/18 04:32:12;;;;;;;20.07;16.00;;;;;;;2.54;92.36;100125.22;5056620;28;20524;-72
2021/12/18 04:34:39;;;;;;;21.27;16.87;;;;;;;2.50;92.42;100126.44;5056430;28;20236;-72
2021/12/18 04:37:05;;;;;;;21.43;16.93;;;;;;;2.42;93.04;100128.78;5056777;28;20189;-72
2021/12/18 04:39:31;;;;;;;22.40;17.40;;;;;;;2.46;93.05;100131.09;5057091;28;20220;-72
2021/12/18 04:41:58;;;;;;;22.53;17.97;;;;;;;2.49;93.73;100124.75;5056354;28;20492;-72
2021/12/18 04:44:25;;;;;;;21.33;15.87;;;;;;;2.62;92.27;100120.22;5056351;28;20781;-72
2021/12/18 04:46:52;;;;;;;21.43;16.67;;;;;;;2.55;91.68;100113.78;5056595;28;20190;-72
2021/12/18 04:49:18;;;;;;;20.80;15.80;;;;;;;2.76;91.10;100112.13;5056296;28;20595;-72
2021/12/18 04:51:45;;;;;;;20.70;16.03;;;;;;;2.77;90.71;100113.78;5056594;28;20204;-72
2021/12/18 04:54:11;;;;;;;19.27;15.23;;;;;;;2.58;91.42;100113.53;5056194;28;20186;-72
2021/12/18 04:56:37;;;;;;;23.33;16.97;;;;;;;2.39;93.02;100113.28;5056562;28;20201;-72
2021/12/18 04:59:05;;;;;;;21.47;15.80;;;;;;;2.57;91.56;100117.13;5056482;28;20214;-72
2021/12/18 05:01:36;;;;;;;22.03;16.43;;;;;;;2.56;92.50;100125.94;5056481;28;20189;-72
2021/12/18 05:04:03;;;;;;;19.53;15.47;;;;;;;2.51;92.45;100128.09;5056351;28;20284;-72
2021/12/18 05:06:31;;;;;;;20.20;15.10;;;;;;;2.50;92.78;100115.91;5056333;28;20189;-72
2021/12/18 05:08:57;;;;;;;20.40;15.30;;;;;;;2.49;92.95;100125.56;5056445;28;20186;-73
2021/12/18 05:11:24;;;;;;;20.00;14.53;;;;;;;2.47;92.69;100122.25;5056138;28;20204;-72
2021/12/18 05:13:50;;;;;;;17.50;13.17;;;;;;;2.46;92.35;100122.34;5057767;28;20213;-71
2021/12/18 05:16:16;;;;;;;15.30;11.87;;;;;;;2.38;91.77;100112.44;5060525;28;20224;-72
2021/12/18 05:18:43;;;;;;;15.87;11.57;;;;;;;2.35;92.09;100117.09;5060425;28;20225;-71
2021/12/18 05:21:10;;;;;;;18.97;11.40;;;;;;;2.28;92.52;100115.88;5060454;28;20247;-72
2021/12/18 05:23:36;;;;;;;17.27;12.33;;;;;;;2.38;92.70;100111.59;5060395;28;20597;-72
2021/12/18 05:26:03;;;;;;;15.13;11.37;;;;;;;2.38;92.40;100125.56;5060324;28;20221;-72
2021/12/18 05:28:29;;;;;;;17.17;12.90;;;;;;;2.34;92.41;100131.19;5060359;28;20208;-72
2021/12/18 05:30:55;;;;;;;14.30;10.70;;;;;;;2.36;91.71;100134.53;5060327;28;20192;-72
2021/12/18 05:33:22;;;;;;;14.80;11.33;;;;;;;2.37;91.98;100136.19;5060164;28;20197;-72
2021/12/18 05:35:48;;;;;;;15.00;11.20;;;;;;;2.37;92.21;100136.19;5060037;28;20225;-72
2021/12/18 05:38:15;;;;;;;16.50;11.60;;;;;;;2.44;91.20;100135.59;5060855;28;20508;-72
2021/12/18 05:40:41;;;;;;;16.70;12.00;;;;;;;2.31;92.30;100136.66;5060341;28;20194;-71
2021/12/18 05:43:09;;;;;;;16.17;12.07;;;;;;;2.32;92.55;100130.47;5060002;28;20197;-72
2021/12/18 05:45:37;;;;;;;13.67;10.47;;;;;;;2.31;92.22;100134.03;5059984;28;20225;-71
2021/12/18 05:48:03;;;;;;;11.83;10.03;;;;;;;2.26;91.97;100139.63;5059883;28;20189;-72
2021/12/18 05:50:31;;;;;;;15.53;11.17;;;;;;;2.30;91.78;100140.25;5059880;28;20256;-72
2021/12/18 05:52:59;;;;;;;13.77;10.03;;;;;;;2.31;91.55;100139.28;5059378;28;20480;-72
2021/12/18 05:55:27;;;;;;;12.13;9.70;;;;;;;2.35;91.42;100136.28;5059750;28;20225;-72
2021/12/18 05:57:54;;;;;;;12.10;9.07;;;;;;;2.35;91.73;100143.34;5059744;28;20249;-72
2021/12/18 06:00:21;;;;;;;11.83;9.87;;;;;;;2.32;92.08;100128.69;5059412;28;20593;-71
2021/12/18 06:02:48;;;;;;;11.50;8.80;;;;;;;2.44;89.84;100143.47;5059463;28;20193;-72
2021/12/18 06:05:14;;;;;;;12.53;9.20;;;;;;;2.43;90.46;100143.63;5059627;28;20244;-72
2021/12/18 06:07:53;;;;;;;10.73;8.27;;;;;;;2.57;89.78;100144.22;5059237;28;20189;-72
2021/12/18 06:10:21;;;;;;;12.03;8.83;;;;;;;2.53;90.42;100139.31;5059325;28;20200;-72
2021/12/18 06:12:48;;;;;;;12.83;10.27;;;;;;;2.35;91.98;100149.41;5059432;28;20189;-72
2021/12/18 06:15:14;;;;;;;13.57;11.03;;;;;;;2.38;91.58;100154.44;5059454;28;20228;-72
2021/12/18 06:17:40;;;;;;;14.63;11.63;;;;;;;2.45;91.56;100147.78;5059406;28;20204;-72
2021/12/18 06:20:09;;;;;;;16.73;12.73;;;;;;;2.34;91.78;100150.38;5059109;28;20197;-72
2021/12/18 06:22:35;;;;;;;16.93;12.53;;;;;;;2.37;91.73;100147.53;5059333;28;20189;-72
2021/12/18 06:25:01;;;;;;;17.00;13.07;;;;;;;2.29;92.04;100147.28;5058490;28;20221;-72
2021/12/18 06:27:28;;;;;;;16.73;12.47;;;;;;;2.34;91.71;100154.81;5059225;28;20194;-72
2021/12/18 06:29:54;;;;;;;15.53;12.10;;;;;;;2.36;91.50;100160.78;5059174;28;20193;-72
2021/12/18 06:32:20;;;;;;;16.07;12.03;;;;;;;2.30;91.54;100156.00;5059080;28;20197;-72
2021/12/18 06:34:47;;;;;;;15.60;12.07;;;;;;;2.36;91.66;100161.63;5058873;28;20229;-72
2021/12/18 06:37:13;;;;;;;16.23;12.83;;;;;;;2.33;91.63;100155.75;5058812;28;20192;-72
2021/12/18 06:39:39;;;;;;;11.17;9.00;;;;;;;2.36;90.10;100158.16;5059105;28;20205;-72
2021/12/18 06:42:06;;;;;;;11.53;8.83;;;;;;;2.30;89.61;100163.88;5058714;28;20197;-72
2021/12/18 06:44:32;;;;;;;11.23;9.27;;;;;;;2.29;90.65;100156.91;5058751;28;20221;-72
2021/12/18 06:46:59;;;;;;;14.20;10.70;;;;;;;2.21;91.32;100154.06;5058754;28;20194;-72
2021/12/18 06:49:25;;;;;;;14.20;10.87;;;;;;;2.20;92.13;100147.97;5059209;28;20190;-72
2021/12/18 06:51:51;;;;;;;14.53;10.30;;;;;;;2.20;91.75;100149.75;5058683;28;20190;-71
2021/12/18 06:54:18;;;;;;;12.03;9.33;;;;;;;2.23;90.91;100144.28;5059065;28;20244;-72
2021/12/18 06:56:44;;;;;;;11.57;8.87;;;;;;;2.29;90.35;100149.91;5058648;28;20208;-72
2021/12/18 06:59:11;;;;;;;13.57;9.40;;;;;;;2.34;90.44;100146.94;5059047;28;20214;-72
2021/12/18 07:01:37;;;;;;;12.17;9.67;;;;;;;2.28;90.55;100157.88;5058471;28;20189;-72
2021/12/18 07:04:03;;;;;;;12.30;9.93;;;;;;;2.26;90.61;100149.31;5058217;28;20201;-72
2021/12/18 07:06:30;;;;;;;13.37;9.20;;;;;;;2.21;90.31;100151.44;5058450;28;20193;-72
2021/12/18 07:08:56;;;;;;;13.07;9.80;;;;;;;2.22;90.65;100153.09;5058408;28;20208;-72
2021/12/18 07:11:24;;;;;;;11.30;8.97;;;;;;;2.26;90.58;100159.81;5058149;28;20220;-72
2021/12/18 07:13:50;;;;;;;12.30;9.53;;;;;;;2.23;90.62;100162.63;5058329;28;20196;-71
2021/12/18 07:16:17;;;;;;;14.27;9.90;;;;;;;2.25;90.27;100166.81;5058146;28;20221;-72
2021/12/18 07:18:43;;;;;;;12.90;9.60;;;;;;;2.24;90.41;100162.53;5058187;28;20572;-72
2021/12/18 07:21:09;;;;;;;12.77;9.57;;;;;;;2.32;91.12;100164.56;5057878;28;20493;-72
2021/12/18 07:23:36;;;;;;;13.17;9.43;;;;;;;2.28;89.88;100163.97;5057809;28;20585;-72
2021/12/18 07:26:02;;;;;;;13.60;9.60;;;;;;;2.28;90.64;100166.59;5057995;28;20233;-72
2021/12/18 07:28:29;;;;;;;14.03;9.40;;;;;;;2.39;90.11;100174.50;5057994;28;20193;-72
2021/12/18 07:30:55;;;;;;;14.53;10.43;;;;;;;2.40;89.83;100184.03;5058021;28;20192;-72
2021/12/18 07:33:21;;;;;;;12.93;9.67;;;;;;;2.42;91.03;100182.16;5057862;28;20194;-72
2021/12/18 07:35:49;;;;;;;12.77;9.10;;;;;;;2.39;90.37;100190.25;5057820;28;20229;-72
2021/12/18 07:38:16;;;;;;;12.57;9.57;;;;;;;2.44;90.42;100192.53;5056701;28;20213;-73
2021/12/18 07:40:42;;;;;;;13.90;9.57;;;;;;;2.39;90.76;100190.25;5057747;28;20185;-74
2021/12/18 07:43:09;;;;;;;12.27;9.30;;;;;;;2.40;90.42;100191.91;5057673;28;20197;-74
2021/12/18 07:45:35;;;;;;;13.67;10.13;;;;;;;2.43;90.69;100190.88;5057562;28;20221;-73
2021/12/18 07:48:03;;;;;;;14.30;9.90;;;;;;;2.38;90.75;100185.94;5057580;28;20195;-73
2021/12/18 07:50:29;;;;;;;15.17;10.37;;;;;;;2.48;90.70;100186.09;5057607;28;20194;-74
2021/12/18 07:52:56;;;;;;;14.70;10.27;;;;;;;2.54;90.80;100186.47;5057602;28;20198;-74
2021/12/18 07:55:22;;;;;;;13.93;9.93;;;;;;;2.51;90.65;100181.44;5057463;28;20531;-74
2021/12/18 07:57:50;;;;;;;16.47;10.40;;;;;;;2.53;90.62;100190.03;5057491;28;20196;-74
2021/12/18 08:00:17;;;;;;;14.93;10.40;;;;;;;2.64;90.37;100191.84;5057416;28;20212;-74
2021/12/18 08:02:44;;;;;;;12.03;9.30;;;;;;;2.56;90.77;100183.69;5057102;28;20593;-74
2021/12/18 08:05:11;;;;;;;12.80;9.40;;;;;;;2.54;90.60;100185.63;5057246;28;20221;-74
2021/12/18 08:07:37;;;;;;;14.47;9.63;;;;;;;2.68;90.80;100191.50;5057289;28;20194;-73
2021/12/18 08:10:06;;;;;;;13.77;9.80;;;;;;;2.68;89.96;100188.03;5056884;28;20186;-70
2021/12/18 08:12:33;;;;;;;13.10;9.17;;;;;;;2.63;90.00;100184.91;5056792;28;20209;-69
2021/12/18 08:14:59;;;;;;;15.37;10.63;;;;;;;2.69;90.28;100184.44;5057103;28;20308;-70
2021/12/18 08:17:26;;;;;;;12.80;9.37;;;;;;;2.77;90.50;100197.81;5057165;28;20196;-69
2021/12/18 08:19:53;;;;;;;13.97;9.77;;;;;;;2.80;90.75;100192.34;5057026;28;20215;-69
2021/12/18 08:22:20;;;;;;;13.80;10.13;;;;;;;2.84;90.08;100191.16;5057653;28;20197;-70
2021/12/18 08:24:47;;;;;;;13.90;9.60;;;;;;;2.77;89.71;100195.19;5056471;28;20694;-70
2021/12/18 08:27:13;;;;;;;12.83;9.80;;;;;;;2.83;89.57;100185.06;5056824;28;20200;-69
2021/12/18 08:29:39;;;;;;;13.03;10.40;;;;;;;2.87;89.72;100175.13;5056787;28;20194;-70
2021/12/18 08:32:06;;;;;;;12.93;9.63;;;;;;;3.03;89.47;100184.34;5056855;28;20212;-70
2021/12/18 08:34:32;;;;;;;13.63;9.70;;;;;;;3.02;89.15;100182.66;5056424;28;20218;-69
2021/12/18 08:36:59;;;;;;;12.40;9.13;;;;;;;2.89;89.57;100183.75;5056563;28;20185;-70
2021/12/18 08:39:25;;;;;;;12.43;9.17;;;;;;;2.88;88.80;100182.91;5056086;28;20628;-70
2021/12/18 08:41:52;;;;;;;11.87;9.40;;;;;;;3.06;87.99;100193.75;5056249;28;20612;-69
2021/12/18 08:44:18;;;;;;;12.10;9.53;;;;;;;2.93;89.17;100182.56;5056461;28;20225;-70
2021/12/18 08:46:45;;;;;;;13.43;9.73;;;;;;;3.01;89.16;100180.16;5056419;28;20189;-70
2021/12/18 08:49:11;;;;;;;16.17;9.20;;;;;;;2.98;88.44;100181.22;5056164;28;20185;-70
2021/12/18 08:51:39;;;;;;;13.17;8.97;;;;;;;2.96;89.16;100177.91;5056713;28;20197;-70
2021/12/18 08:54:06;;;;;;;14.37;9.87;;;;;;;3.05;89.13;100176.34;5056129;28;20581;-69
2021/12/18 08:56:33;;;;;;;14.03;9.97;;;;;;;3.19;88.33;100174.31;5057249;28;20189;-69
2021/12/18 08:59:00;;;;;;;12.90;9.33;;;;;;;3.29;88.78;100179.69;5056107;28;20210;-70
2021/12/18 09:01:31;;;;;;;13.00;9.10;;;;;;;3.26;87.55;100175.47;5056177;28;20194;-69
2021/12/18 09:03:57;;;;;;;11.33;8.73;;;;;;;3.14;87.48;100181.72;5055887;28;20193;-70
2021/12/18 09:06:24;;;;;;;10.77;8.27;;;;;;;3.08;88.48;100176.09;5056236;28;20197;-69
2021/12/18 09:08:51;;;;;;;12.77;9.63;;;;;;;3.14;88.21;100176.47;5056322;28;20192;-70
2021/12/18 09:11:18;;;;;;;12.57;9.63;;;;;;;3.27;87.81;100171.06;5055975;28;20217;-70
2021/12/18 09:13:44;;;;;;;11.40;8.47;;;;;;;3.23;87.61;100173.09;5056108;28;20197;-69
2021/12/18 09:16:10;;;;;;;11.30;9.27;;;;;;;3.25;87.54;100175.63;5056074;28;20300;-70
2021/12/18 09:18:37;;;;;;;11.07;8.57;;;;;;;3.26;87.39;100169.41;5056109;28;20200;-70
2021/12/18 09:21:04;;;;;;;12.80;9.10;;;;;;;3.25;87.46;100170.38;5056219;28;20193;-70
2021/12/18 09:23:30;;;;;;;13.40;9.23;;;;;;;3.10;87.53;100179.44;5056238;28;20520;-74
2021/12/18 09:25:57;;;;;;;11.17;9.17;;;;;;;3.15;88.21;100175.50;5056128;28;20232;-74
2021/12/18 09:28:23;;;;;;;12.13;9.60;;;;;;;3.21;87.96;100166.31;5056141;28;20193;-74
2021/12/18 09:30:50;;;;;;;13.33;9.23;;;;;;;3.36;86.57;100165.91;5056014;28;20189;-74
2021/12/18 09:33:18;;;;;;;11.47;9.33;;;;;;;3.31;86.52;100167.22;5055756;28;20189;-73
2021/12/18 09:35:45;;;;;;;11.87;9.00;;;;;;;3.50;85.83;100162.16;5055790;28;20256;-75
2021/12/18 09:38:11;;;;;;;11.93;9.50;;;;;;;3.58;85.55;100165.03;5055930;28;20193;-74
2021/12/18 09:40:38;;;;;;;14.47;9.70;;;;;;;3.51;86.16;100155.94;5055658;28;20213;-74
2021/12/18 09:43:05;;;;;;;11.67;9.07;;;;;;;3.40;86.55;100163.88;5055751;28;20197;-74
2021/12/18 09:45:31;;;;;;;12.17;10.23;;;;;;;3.26;87.92;100158.88;5055735;28;20225;-74
2021/12/18 09:47:58;;;;;;;14.20;10.37;;;;;;;3.33;87.84;100154.78;5055940;28;20201;-74
2021/12/18 09:50:28;;;;;;;14.33;10.07;;;;;;;3.36;86.84;100149.28;5055835;28;20197;-73
2021/12/18 09:52:54;;;;;;;14.33;10.77;;;;;;;3.20;87.90;100147.06;5055697;28;20190;-74
2021/12/18 09:55:21;;;;;;;14.57;10.40;;;;;;;3.35;88.68;100155.53;5055678;28;20225;-74
2021/12/18 09:57:49;;;;;;;13.00;10.40;;;;;;;3.35;88.41;100151.06;5055515;28;20619;-74
2021/12/18 10:00:21;;;;;;;12.93;10.07;;;;;;;3.53;87.01;100146.16;5056054;28;20209;-74
2021/12/18 10:02:47;;;;;;;14.57;10.00;;;;;;;3.67;86.02;100143.25;5059580;28;20185;-74
2021/12/18 10:05:29;;;;;;;13.70;10.13;;;;;;;3.67;86.59;100145.88;5059309;28;20221;-74
2021/12/18 10:08:19;;;;;;;15.53;11.10;;;;;;;3.52;86.33;100136.59;5059257;28;20233;-73
2021/12/18 10:11:08;;;;;;;13.53;10.57;;;;;;;3.67;85.16;100132.72;5059145;28;20209;-74
2021/12/18 10:13:53;;;;;;;15.53;10.80;;;;;;;3.65;85.82;100127.56;5059043;28;20608;-73
2021/12/18 10:16:20;;;;;;;15.20;10.40;;;;;;;3.77;85.23;100133.63;5059043;28;20236;-73
2021/12/18 10:18:46;;;;;;;14.23;10.57;;;;;;;3.74;85.70;100123.34;5059301;28;20197;-74
2021/12/18 10:21:20;;;;;;;13.70;10.27;;;;;;;3.46;87.08;100129.19;5059309;28;20492;-74
2021/12/18 10:23:48;;;;;;;14.07;10.80;;;;;;;3.67;86.26;100122.19;5059138;28;20201;-74
2021/12/18 10:26:34;;;;;;;13.90;11.23;;;;;;;3.49;87.01;100115.81;5058853;28;20253;-73
2021/12/18 10:29:01;;;;;;;15.77;11.50;;;;;;;3.47;86.67;100120.34;5058880;28;20204;-73
2021/12/18 10:31:47;;;;;;;13.83;10.30;;;;;;;3.67;85.49;100122.19;5059005;28;20189;-74
2021/12/18 10:34:27;;;;;;;12.97;10.37;;;;;;;3.81;85.41;100121.91;5059100;28;20200;-73
2021/12/18 10:37:20;;;;;;;16.20;10.77;;;;;;;3.76;84.22;100118.81;5058895;28;20193;-73
2021/12/18 10:40:11;;;;;;;13.43;10.20;;;;;;;3.60;85.31;100121.00;5058421;28;20209;-73
2021/12/18 10:42:42;;;;;;;16.40;11.93;;;;;;;3.61;85.75;100120.06;5058286;28;20592;-74
2021/12/18 10:45:24;;;;;;;17.23;11.30;;;;;;;3.65;85.39;100108.31;5058211;28;20543;-74
2021/12/18 10:48:05;;;;;;;13.03;10.23;;;;;;;3.77;84.65;100108.16;5059136;28;20193;-73
2021/12/18 10:50:31;;;;;;;14.40;10.20;;;;;;;3.37;85.97;100108.91;5058349;28;20181;-73
2021/12/18 10:53:10;;;;;;;14.43;10.10;;;;;;;3.46;86.98;100111.63;5058334;28;20495;-74
2021/12/18 10:55:46;;;;;;;14.43;11.10;;;;;;;3.68;86.26;100101.03;5058418;28;20229;-73
2021/12/18 10:58:18;;;;;;;14.50;11.33;;;;;;;3.83;84.90;100114.69;5058483;28;20185;-74
2021/12/18 11:00:50;;;;;;;15.77;10.93;;;;;;;3.89;84.66;100107.13;5058257;28;20511;-73
2021/12/18 11:03:24;;;;;;;15.47;11.20;;;;;;;3.67;86.34;100103.78;5057935;28;20216;-74
2021/12/18 11:06:10;;;;;;;12.73;10.20;;;;;;;3.83;83.79;100105.03;5058279;28;20226;-74
2021/12/18 11:09:04;;;;;;;14.80;11.23;;;;;;;3.66;85.23;100086.34;5057996;28;20186;-74
2021/12/18 11:14:42;;;;;;;13.60;10.33;;;;;;;3.68;84.20;100085.25;5057880;28;20619;-74
2021/12/18 11:17:15;;;;;;;13.77;10.13;;;;;;;3.84;83.66;100079.56;5057744;28;20774;-74
2021/12/18 11:19:43;;;;;;;16.20;10.37;;;;;;;3.79;84.58;100079.91;5057943;28;20209;-73
2021/12/18 11:22:12;;;;;;;12.67;9.63;;;;;;;3.61;84.15;100075.38;5058002;28;20201;-73
2021/12/18 11:24:46;;;;;;;12.77;9.67;;;;;;;3.49;85.85;100074.56;5057999;28;20256;-74
2021/12/18 11:27:16;;;;;;;12.70;10.03;;;;;;;3.55;84.16;100074.06;5057908;28;20194;-74
2021/12/18 11:29:55;;;;;;;14.97;10.10;;;;;;;3.70;83.86;100074.59;5057750;28;20223;-73
2021/12/18 11:32:30;;;;;;;13.37;10.97;;;;;;;3.79;83.07;100074.66;5057759;28;20197;-73
2021/12/18 11:35:03;;;;;;;14.90;10.93;;;;;;;3.75;84.30;100061.91;5057234;28;20228;-74
2021/12/18 11:37:35;;;;;;;13.87;10.70;;;;;;;3.59;84.01;100066.75;5057968;28;20194;-74
2021/12/18 11:40:04;;;;;;;14.07;10.10;;;;;;;3.61;83.57;100065.66;5058421;28;20219;-73
2021/12/18 11:42:33;;;;;;;12.20;10.13;;;;;;;3.58;84.69;100057.19;5057709;28;20247;-74
2021/12/18 11:45:02;;;;;;;12.60;9.80;;;;;;;3.60;84.93;100060.53;5057418;28;20229;-73
2021/12/18 11:47:58;;;;;;;11.43;9.23;;;;;;;3.79;83.81;100047.53;5057185;28;20603;-74
2021/12/18 11:50:37;;;;;;;13.67;9.10;;;;;;;3.50;83.22;100049.09;5057501;28;20541;-73
2021/12/18 11:53:10;;;;;;;12.43;9.00;;;;;;;3.47;83.69;100046.72;5057464;28;20193;-73
2021/12/18 11:55:51;;;;;;;9.93;8.60;;;;;;;3.68;82.27;100044.94;5057241;28;20247;-73